Time;durP1;ratioP1;P1;durP2;ratioP2;P2;SDS_P1;SDS_P2;PMS_P1;PMS_P2;Temp;Humidity;BMP_temperature;BMP_pressure;BME280_temperature;BME280_humidity;BME280_pressure;Samples;Min_cycle;Max_cycle;Signal;HPM_P1;HPM_P2
2022/07/10 00:00:26;;;;;;;22.83;11.02;;;12.80;99.90;;;;;;5062737;28;20083;-76
2022/07/10 00:02:55;;;;;;;21.48;12.07;;;12.80;99.90;;;;;;5073552;28;20025;-70
2022/07/10 00:05:21;;;;;;;13.95;10.02;;;12.70;99.90;;;;;;5073831;28;20028;-75
2022/07/10 00:07:47;;;;;;;14.60;9.35;;;12.70;99.90;;;;;;5073457;28;20374;-70
2022/07/10 00:10:14;;;;;;;17.10;10.60;;;12.70;99.90;;;;;;5056448;28;20028;-76
2022/07/10 00:12:40;;;;;;;16.63;10.00;;;12.60;99.90;;;;;;5053569;28;20394;-69
2022/07/10 00:15:07;;;;;;;13.68;8.48;;;12.60;99.90;;;;;;5053529;28;20029;-69
2022/07/10 00:17:33;;;;;;;17.23;10.25;;;12.60;99.90;;;;;;5052077;28;20025;-76
2022/07/10 00:19:59;;;;;;;16.42;10.48;;;12.60;99.90;;;;;;5052126;28;20078;-76
2022/07/10 00:22:24;;;;;;;14.70;9.77;;;12.50;99.90;;;;;;5053473;28;20021;-76
2022/07/10 00:24:50;;;;;;;11.55;8.10;;;12.50;99.90;;;;;;5053307;28;20032;-76
2022/07/10 00:27:17;;;;;;;14.50;9.77;;;12.50;99.90;;;;;;5052099;28;20071;-77
2022/07/10 00:29:43;;;;;;;12.35;7.93;;;12.50;99.90;;;;;;5052114;28;20028;-76
2022/07/10 00:32:09;;;;;;;11.75;8.75;;;12.50;99.90;;;;;;5053220;28;20057;-77
2022/07/10 00:34:36;;;;;;;13.82;8.27;;;12.60;99.90;;;;;;5051490;28;20470;-77
2022/07/10 00:37:02;;;;;;;12.20;8.07;;;12.60;99.90;;;;;;5051948;28;20082;-77
2022/07/10 00:39:28;;;;;;;13.45;8.05;;;12.60;99.90;;;;;;5053162;28;20029;-76
2022/07/10 00:41:54;;;;;;;15.82;9.10;;;12.60;99.90;;;;;;5053154;28;20385;-76
2022/07/10 00:44:20;;;;;;;17.50;11.32;;;12.60;99.90;;;;;;5053070;28;20039;-77
2022/07/10 00:46:46;;;;;;;19.90;11.98;;;12.60;99.90;;;;;;5053866;28;20537;-77
2022/07/10 00:49:11;;;;;;;12.98;8.75;;;12.60;99.90;;;;;;5051747;28;20044;-70
2022/07/10 00:51:38;;;;;;;14.30;9.50;;;12.50;99.90;;;;;;5053108;28;20067;-70
2022/07/10 00:54:05;;;;;;;12.95;8.35;;;12.50;99.90;;;;;;5052840;28;20032;-69
2022/07/10 00:56:31;;;;;;;10.88;8.18;;;12.50;99.90;;;;;;5053165;28;20025;-70
2022/07/10 00:58:57;;;;;;;16.85;9.05;;;12.50;99.90;;;;;;5052742;28;20081;-77
2022/07/10 01:01:23;;;;;;;13.27;8.90;;;12.50;99.90;;;;;;5069056;28;20021;-77
2022/07/10 01:03:50;;;;;;;16.13;10.15;;;12.50;99.90;;;;;;5072949;28;20104;-70
2022/07/10 01:06:16;;;;;;;19.60;12.45;;;12.50;99.90;;;;;;5071738;28;20389;-77
2022/07/10 01:08:43;;;;;;;14.85;9.23;;;12.50;99.90;;;;;;5066661;28;20017;-70
2022/07/10 01:11:10;;;;;;;14.35;8.68;;;12.50;99.90;;;;;;5052895;28;20418;-76
2022/07/10 01:13:37;;;;;;;14.15;9.80;;;12.50;99.90;;;;;;5052639;28;20037;-76
2022/07/10 01:16:03;;;;;;;19.35;11.52;;;12.50;99.90;;;;;;5051533;28;20119;-76
2022/07/10 01:18:29;;;;;;;14.48;9.63;;;12.50;99.90;;;;;;5051583;28;20025;-70
2022/07/10 01:20:56;;;;;;;13.02;8.45;;;12.50;99.90;;;;;;5052782;28;20028;-76
2022/07/10 01:23:22;;;;;;;13.40;7.50;;;12.50;99.90;;;;;;5051440;28;20028;-70
2022/07/10 01:25:49;;;;;;;12.05;8.40;;;12.60;99.90;;;;;;5052671;28;20029;-76
2022/07/10 01:28:20;;;;;;;10.35;8.15;;;12.60;99.90;;;;;;5052666;28;20032;-76
2022/07/10 01:30:46;;;;;;;10.50;7.40;;;12.60;99.90;;;;;;5052593;28;20039;-70
2022/07/10 01:33:12;;;;;;;15.13;9.82;;;12.70;99.90;;;;;;5052658;28;20445;-76
2022/07/10 01:35:39;;;;;;;14.93;10.07;;;12.70;99.90;;;;;;5051371;28;20082;-69
2022/07/10 01:38:04;;;;;;;13.77;10.95;;;12.60;99.90;;;;;;5051072;28;20063;-70
2022/07/10 01:40:30;;;;;;;15.45;11.32;;;12.60;99.90;;;;;;5052723;28;20025;-76
2022/07/10 01:42:56;;;;;;;17.15;11.00;;;12.60;99.90;;;;;;5052432;28;20024;-76
2022/07/10 01:45:22;;;;;;;13.27;9.70;;;12.70;99.90;;;;;;5052668;28;20111;-76
2022/07/10 01:47:48;;;;;;;12.98;8.52;;;12.60;99.90;;;;;;5055008;28;20021;-76
2022/07/10 01:50:13;;;;;;;12.40;8.18;;;12.60;99.90;;;;;;5056165;28;20043;-76
2022/07/10 01:52:40;;;;;;;10.45;7.65;;;12.60;99.90;;;;;;5056297;28;20025;-76
2022/07/10 01:55:07;;;;;;;13.35;8.35;;;12.60;99.90;;;;;;5054892;28;20092;-77
2022/07/10 01:57:32;;;;;;;12.35;8.00;;;12.60;99.90;;;;;;5054899;28;20025;-76
2022/07/10 01:59:58;;;;;;;11.07;8.35;;;12.50;99.90;;;;;;5061920;28;20031;-76
2022/07/10 02:02:24;;;;;;;12.18;8.15;;;12.50;99.90;;;;;;5075993;28;20027;-77
2022/07/10 02:04:50;;;;;;;12.70;8.15;;;12.40;99.90;;;;;;5075849;28;20024;-77
2022/07/10 02:07:21;;;;;;;10.73;8.57;;;12.40;99.90;;;;;;5074800;28;20024;-70
2022/07/10 02:09:47;;;;;;;12.82;8.77;;;12.30;99.90;;;;;;5061805;28;20028;-76
2022/07/10 02:12:14;;;;;;;12.52;7.90;;;12.30;99.90;;;;;;5055860;28;20506;-70
2022/07/10 02:14:41;;;;;;;11.65;8.35;;;12.30;99.90;;;;;;5055704;28;20479;-69
2022/07/10 02:17:07;;;;;;;12.80;8.43;;;12.30;99.90;;;;;;5054512;28;20024;-77
2022/07/10 02:19:33;;;;;;;12.40;9.00;;;12.30;99.90;;;;;;5054301;28;20031;-75
2022/07/10 02:22:00;;;;;;;13.35;9.50;;;12.20;99.90;;;;;;5055738;28;20017;-70
2022/07/10 02:24:26;;;;;;;13.13;8.73;;;12.30;99.90;;;;;;5055543;28;20490;-70
2022/07/10 02:26:52;;;;;;;16.35;8.90;;;12.30;99.90;;;;;;5055588;28;20047;-76
2022/07/10 02:29:18;;;;;;;10.82;8.52;;;12.30;99.90;;;;;;5055581;28;20049;-70
2022/07/10 02:31:44;;;;;;;11.75;8.65;;;12.40;99.90;;;;;;5055422;28;20506;-70
2022/07/10 02:34:11;;;;;;;16.05;9.20;;;12.40;99.90;;;;;;5055356;28;20039;-70
2022/07/10 02:36:40;;;;;;;12.38;8.85;;;12.40;99.90;;;;;;5055497;28;20029;-70
2022/07/10 02:39:07;;;;;;;11.38;8.60;;;12.50;99.90;;;;;;5055419;28;20116;-69
2022/07/10 02:41:35;;;;;;;15.35;10.38;;;12.50;99.90;;;;;;5055509;28;20104;-69
2022/07/10 02:44:01;;;;;;;11.13;8.57;;;12.50;99.90;;;;;;5055085;28;20047;-77
2022/07/10 02:46:27;;;;;;;10.98;8.48;;;12.60;99.90;;;;;;5055396;28;20100;-77
2022/07/10 02:48:53;;;;;;;15.65;8.38;;;12.50;99.90;;;;;;5053779;28;20116;-78
2022/07/10 02:51:18;;;;;;;9.45;7.50;;;12.50;99.90;;;;;;5053685;28;20397;-77
2022/07/10 02:53:44;;;;;;;11.95;8.48;;;12.50;99.90;;;;;;5055314;28;20075;-76
2022/07/10 02:56:10;;;;;;;11.57;8.05;;;12.60;99.90;;;;;;5054961;28;20053;-70
2022/07/10 02:58:37;;;;;;;13.80;9.90;;;12.60;99.90;;;;;;5054377;28;20056;-70
2022/07/10 03:01:03;;;;;;;30.35;13.23;;;12.60;99.90;;;;;;5070261;28;20074;-77
2022/07/10 03:03:29;;;;;;;44.42;20.48;;;12.60;99.90;;;;;;5073751;28;20025;-70
2022/07/10 03:05:54;;;;;;;30.05;16.77;;;12.60;99.90;;;;;;5074884;28;20093;-70
2022/07/10 03:08:20;;;;;;;34.33;19.25;;;12.60;99.90;;;;;;5072491;28;20449;-77
2022/07/10 03:10:46;;;;;;;40.60;19.10;;;12.50;99.90;;;;;;5054798;28;20483;-70
2022/07/10 03:13:11;;;;;;;17.80;11.85;;;12.50;99.90;;;;;;5054692;28;20063;-76
2022/07/10 03:15:37;;;;;;;17.25;10.30;;;12.40;99.90;;;;;;5053186;28;20378;-77
2022/07/10 03:18:03;;;;;;;21.02;11.60;;;12.40;99.90;;;;;;5053412;28;20422;-70
2022/07/10 03:20:29;;;;;;;13.32;9.07;;;12.30;99.90;;;;;;5054564;28;20033;-77
2022/07/10 03:22:54;;;;;;;15.63;9.10;;;12.30;99.90;;;;;;5054533;28;20025;-70
2022/07/10 03:25:20;;;;;;;13.57;9.85;;;12.40;99.90;;;;;;5054367;28;20079;-77
2022/07/10 03:27:46;;;;;;;13.50;9.05;;;12.30;99.90;;;;;;5053173;28;20021;-77
2022/07/10 03:30:12;;;;;;;15.50;10.20;;;12.30;99.90;;;;;;5054336;28;20032;-69
2022/07/10 03:32:37;;;;;;;13.95;8.70;;;12.40;99.90;;;;;;5054317;28;20049;-77
2022/07/10 03:35:03;;;;;;;14.18;8.43;;;12.30;99.90;;;;;;5052918;28;20021;-76
2022/07/10 03:37:29;;;;;;;16.23;10.02;;;12.30;99.90;;;;;;5054054;28;20064;-70
2022/07/10 03:39:55;;;;;;;9.65;7.78;;;12.40;99.90;;;;;;5054040;28;20040;-76
2022/07/10 03:42:20;;;;;;;14.93;9.88;;;12.40;99.90;;;;;;5054272;28;20043;-76
2022/07/10 03:44:46;;;;;;;15.20;10.23;;;12.50;99.90;;;;;;5054274;28;20528;-76
2022/07/10 03:47:12;;;;;;;15.00;10.20;;;12.50;99.90;;;;;;5054101;28;20021;-77
2022/07/10 03:49:41;;;;;;;20.20;12.68;;;12.50;99.90;;;;;;5054020;28;20107;-77
2022/07/10 03:52:08;;;;;;;19.95;12.15;;;12.50;99.90;;;;;;5052580;28;20017;-77
2022/07/10 03:54:33;;;;;;;19.38;11.65;;;12.50;99.90;;;;;;5054011;28;20024;-69
2022/07/10 03:59:43;;;;;;;16.20;11.18;;;12.50;99.90;;;;;;5058599;28;20081;-69
2022/07/10 04:02:09;;;;;;;15.52;10.77;;;12.50;99.90;;;;;;5069077;28;20029;-77
2022/07/10 04:04:35;;;;;;;18.15;11.65;;;12.60;99.90;;;;;;5053770;28;20432;-77
2022/07/10 04:07:01;;;;;;;14.43;10.55;;;12.60;99.90;;;;;;5052370;28;20542;-70
2022/07/10 04:09:26;;;;;;;15.45;10.45;;;12.60;99.90;;;;;;5051577;28;20151;-78
2022/07/10 04:11:52;;;;;;;15.48;9.30;;;12.60;99.90;;;;;;5053437;28;20036;-70
2022/07/10 04:14:18;;;;;;;12.18;9.27;;;12.70;99.90;;;;;;5053655;28;20025;-69
2022/07/10 04:16:44;;;;;;;15.13;8.35;;;12.70;99.90;;;;;;5035737;28;20033;-70
2022/07/10 04:19:09;;;;;;;13.88;8.07;;;12.70;99.90;;;;;;5053545;28;20032;-77
2022/07/10 04:21:36;;;;;;;10.55;7.03;;;12.70;99.90;;;;;;5053359;28;20025;-70
2022/07/10 04:24:03;;;;;;;11.98;8.70;;;12.70;99.90;;;;;;5053472;28;20025;-69
2022/07/10 04:26:28;;;;;;;10.52;8.35;;;12.70;99.90;;;;;;5053264;28;20109;-77
2022/07/10 04:28:54;;;;;;;10.18;6.80;;;12.70;99.90;;;;;;5051932;28;20107;-77
2022/07/10 04:31:19;;;;;;;10.02;7.15;;;12.70;99.90;;;;;;5053400;28;20041;-71
2022/07/10 04:33:45;;;;;;;9.77;6.43;;;12.70;99.90;;;;;;5053418;28;20036;-77
2022/07/10 04:36:11;;;;;;;12.13;7.38;;;12.70;99.90;;;;;;5053157;28;20024;-70
2022/07/10 04:38:37;;;;;;;7.55;6.75;;;12.70;99.90;;;;;;5053258;28;20020;-77
2022/07/10 04:41:02;;;;;;;9.05;6.00;;;12.70;99.90;;;;;;5051932;28;20051;-70
2022/07/10 04:43:30;;;;;;;8.63;6.65;;;12.70;99.90;;;;;;5053129;28;20028;-76
2022/07/10 04:45:56;;;;;;;8.60;6.57;;;12.70;99.90;;;;;;5053133;28;20029;-77
2022/07/10 04:48:21;;;;;;;12.82;6.80;;;12.70;99.90;;;;;;5053323;28;20143;-70
2022/07/10 04:50:47;;;;;;;8.68;6.10;;;12.80;99.90;;;;;;5052950;28;20096;-69
2022/07/10 04:53:13;;;;;;;14.00;6.82;;;12.80;99.90;;;;;;5053058;28;20037;-70
2022/07/10 04:55:39;;;;;;;7.75;6.63;;;12.80;99.90;;;;;;5053064;28;20025;-76
2022/07/10 04:58:04;;;;;;;9.88;6.80;;;12.90;99.90;;;;;;5051729;28;20021;-76
2022/07/10 05:00:30;;;;;;;10.25;6.88;;;12.80;99.90;;;;;;5052946;28;20033;-76
2022/07/10 05:02:55;;;;;;;8.60;6.72;;;12.90;99.90;;;;;;5051576;28;20028;-71
2022/07/10 05:05:21;;;;;;;9.02;6.85;;;12.80;99.90;;;;;;5053056;28;20033;-76
2022/07/10 05:07:47;;;;;;;8.43;6.53;;;12.80;99.90;;;;;;5052920;28;20120;-70
2022/07/10 05:10:12;;;;;;;12.35;6.70;;;12.80;99.90;;;;;;5052868;28;20467;-76
2022/07/10 05:12:38;;;;;;;9.30;6.90;;;12.80;99.90;;;;;;5052706;28;20478;-70
2022/07/10 05:15:04;;;;;;;9.60;7.10;;;12.90;99.90;;;;;;5052789;28;20052;-76
2022/07/10 05:17:31;;;;;;;13.70;7.78;;;13.00;99.90;;;;;;5048015;28;20029;-77
2022/07/10 05:19:57;;;;;;;9.00;7.15;;;13.00;99.90;;;;;;5041274;28;20021;-76
2022/07/10 05:22:24;;;;;;;8.32;6.75;;;13.00;99.90;;;;;;5045838;28;20031;-77
2022/07/10 05:24:51;;;;;;;20.38;7.50;;;13.00;99.90;;;;;;5045614;28;20025;-77
2022/07/10 05:27:19;;;;;;;9.25;7.25;;;13.10;99.90;;;;;;5042700;28;20048;-76
2022/07/10 05:29:46;;;;;;;10.82;6.97;;;13.20;99.90;;;;;;5045812;28;20482;-69
2022/07/10 05:32:11;;;;;;;10.48;7.88;;;13.20;99.90;;;;;;5046955;28;20044;-70
2022/07/10 05:34:37;;;;;;;10.45;6.47;;;13.20;99.90;;;;;;5045304;28;20485;-69
2022/07/10 05:37:03;;;;;;;9.15;7.05;;;13.10;99.90;;;;;;5046184;28;20028;-70
2022/07/10 05:39:28;;;;;;;9.07;7.40;;;13.10;99.90;;;;;;5047150;28;20505;-69
2022/07/10 05:41:55;;;;;;;8.63;7.43;;;13.00;99.90;;;;;;5045868;28;20501;-77
2022/07/10 05:44:21;;;;;;;7.97;6.75;;;13.00;99.90;;;;;;5043847;28;20075;-69
2022/07/10 05:46:47;;;;;;;8.50;6.88;;;13.00;99.90;;;;;;5045496;28;20025;-70
2022/07/10 05:49:13;;;;;;;10.52;6.32;;;13.10;99.90;;;;;;5046846;28;20464;-69
2022/07/10 05:51:38;;;;;;;8.52;7.07;;;13.10;99.90;;;;;;5044873;28;20041;-70
2022/07/10 05:54:04;;;;;;;7.18;5.95;;;13.30;99.90;;;;;;5045777;28;20055;-77
2022/07/10 05:56:30;;;;;;;8.35;5.72;;;13.40;99.90;;;;;;5043972;28;20479;-70
2022/07/10 05:58:56;;;;;;;6.70;6.00;;;13.40;99.90;;;;;;5043772;28;20051;-69
2022/07/10 06:01:23;;;;;;;8.25;6.22;;;13.40;99.90;;;;;;5072455;28;20074;-77
2022/07/10 06:03:49;;;;;;;8.75;6.47;;;13.50;99.90;;;;;;5075735;28;20079;-77
2022/07/10 06:06:15;;;;;;;6.05;5.47;;;13.70;99.90;;;;;;5076067;28;20024;-70
2022/07/10 06:08:41;;;;;;;6.30;4.70;;;13.60;99.90;;;;;;5069573;28;20025;-70
2022/07/10 06:11:07;;;;;;;5.35;4.65;;;13.50;99.90;;;;;;5055895;28;20112;-69
2022/07/10 06:13:33;;;;;;;10.30;5.53;;;13.40;99.90;;;;;;5055663;28;20104;-70
2022/07/10 06:15:58;;;;;;;4.35;3.95;;;13.40;99.90;;;;;;5055445;28;20104;-70
2022/07/10 06:18:24;;;;;;;7.07;4.78;;;13.50;99.90;;;;;;5055703;28;20025;-73
2022/07/10 06:20:50;;;;;;;3.70;3.25;;;13.60;99.90;;;;;;5054315;28;20020;-69
2022/07/10 06:23:15;;;;;;;6.40;4.20;;;14.00;99.90;;;;;;5055614;28;20020;-69
2022/07/10 06:25:41;;;;;;;7.53;4.13;;;14.30;99.90;;;;;;5054931;28;20091;-70
2022/07/10 06:28:07;;;;;;;6.18;3.75;;;14.70;99.90;;;;;;5054892;28;20040;-70
2022/07/10 06:30:32;;;;;;;6.57;3.50;;;14.80;99.90;;;;;;5054720;28;20048;-70
2022/07/10 06:32:58;;;;;;;5.63;3.13;;;14.90;99.90;;;;;;5053554;28;20052;-71
2022/07/10 06:35:24;;;;;;;3.00;2.70;;;15.10;99.90;;;;;;5053415;28;20033;-69
2022/07/10 06:37:49;;;;;;;5.40;2.97;;;15.30;99.90;;;;;;5054537;28;20032;-70
2022/07/10 06:40:16;;;;;;;3.83;3.35;;;15.50;99.90;;;;;;5054668;28;20025;-69
2022/07/10 06:42:42;;;;;;;4.45;2.85;;;15.60;99.90;;;;;;5054619;28;20028;-69
2022/07/10 06:45:08;;;;;;;4.88;2.88;;;15.60;99.90;;;;;;5053323;28;20414;-69
2022/07/10 06:50:18;;;;;;;5.00;2.40;;;15.40;99.90;;;;;;5054339;28;20048;-70
2022/07/10 06:52:44;;;;;;;2.58;2.38;;;15.00;99.90;;;;;;5053574;28;20482;-71
2022/07/10 06:55:10;;;;;;;2.58;2.38;;;15.00;99.90;;;;;;5054942;28;20078;-70
2022/07/10 06:57:38;;;;;;;3.97;2.85;;;15.00;99.90;;;;;;5054892;28;20032;-71
2022/07/10 07:00:05;;;;;;;2.42;2.20;;;14.90;99.90;;;;;;5053205;28;20035;-69
2022/07/10 07:02:30;;;;;;;6.13;2.50;;;14.90;99.90;;;;;;5048960;28;20041;-70
2022/07/10 07:04:56;;;;;;;2.67;2.47;;;14.80;99.90;;;;;;5062413;28;20062;-70
2022/07/10 07:07:22;;;;;;;5.05;2.38;;;14.90;99.90;;;;;;5070810;28;20037;-71
2022/07/10 07:09:50;;;;;;;3.65;1.98;;;14.90;99.90;;;;;;5062409;28;20025;-78
2022/07/10 07:12:16;;;;;;;8.77;2.78;;;14.80;99.90;;;;;;5067431;28;20016;-77
2022/07/10 07:14:42;;;;;;;7.75;2.85;;;14.90;99.90;;;;;;5073534;28;20477;-78
2022/07/10 07:17:09;;;;;;;6.72;3.70;;;14.90;99.90;;;;;;5072904;28;20025;-76
2022/07/10 07:25:07;;;;;;;3.75;3.35;;;15.30;99.90;;;;;;5073354;28;20077;-78
2022/07/10 07:27:34;;;;;;;4.78;3.30;;;15.60;99.90;;;;;;5044206;28;20021;-78
2022/07/10 07:30:04;;;;;;;6.18;3.03;;;15.50;99.90;;;;;;5045716;28;20020;-77
2022/07/10 07:32:30;;;;;;;3.83;2.00;;;15.70;99.90;;;;;;5041871;28;20128;-78
2022/07/10 07:34:56;;;;;;;4.75;2.20;;;15.50;92.00;;;;;;5034157;28;20026;-77
2022/07/10 07:37:23;;;;;;;4.88;2.00;;;15.60;99.90;;;;;;5034209;28;20070;-77
2022/07/10 07:39:49;;;;;;;5.40;1.92;;;15.70;96.30;;;;;;5033855;28;20028;-77
2022/07/10 07:42:15;;;;;;;3.75;1.65;;;15.80;95.90;;;;;;5034190;28;20022;-77
2022/07/10 07:44:40;;;;;;;2.60;2.38;;;16.00;93.60;;;;;;5032516;28;20037;-77
2022/07/10 07:47:06;;;;;;;3.63;2.00;;;16.00;94.90;;;;;;5032694;28;20024;-77
2022/07/10 07:49:32;;;;;;;2.67;2.40;;;15.90;94.10;;;;;;5033960;28;20470;-77
2022/07/10 07:51:57;;;;;;;3.35;1.80;;;15.80;95.20;;;;;;5036820;28;20487;-77
2022/07/10 07:54:23;;;;;;;6.47;2.35;;;15.60;96.10;;;;;;5047725;28;20029;-78
2022/07/10 07:56:49;;;;;;;4.55;2.13;;;15.60;95.30;;;;;;5044155;28;20543;-76
2022/07/10 07:59:14;;;;;;;3.85;1.65;;;15.50;89.00;;;;;;5037596;28;20494;-77
2022/07/10 08:01:40;;;;;;;4.75;1.83;;;15.20;84.70;;;;;;5073666;28;20025;-71
2022/07/10 08:04:06;;;;;;;3.47;1.30;;;15.00;80.80;;;;;;5073253;28;20035;-70
2022/07/10 08:06:31;;;;;;;2.63;1.70;;;15.10;83.60;;;;;;5062338;28;20021;-71
2022/07/10 08:08:57;;;;;;;3.30;1.70;;;14.90;81.00;;;;;;5049727;28;20482;-70
2022/07/10 08:11:22;;;;;;;3.35;1.20;;;14.90;81.50;;;;;;5034778;28;20105;-70
2022/07/10 08:13:48;;;;;;;5.50;1.50;;;15.10;79.80;;;;;;5038925;28;20075;-70
2022/07/10 08:16:14;;;;;;;4.30;1.92;;;15.50;77.50;;;;;;5041265;28;20037;-71
2022/07/10 08:18:40;;;;;;;0.95;0.95;;;15.90;76.80;;;;;;5039871;28;20025;-70
2022/07/10 08:21:05;;;;;;;2.58;1.13;;;15.90;72.70;;;;;;5046794;28;20033;-70
2022/07/10 08:23:31;;;;;;;2.05;1.23;;;15.90;74.80;;;;;;5042853;28;20028;-70
2022/07/10 08:25:57;;;;;;;3.63;1.00;;;15.90;76.40;;;;;;5044984;28;20591;-70
2022/07/10 08:28:22;;;;;;;2.78;1.40;;;16.00;74.70;;;;;;5046559;28;20025;-70
2022/07/10 08:30:48;;;;;;;1.73;1.00;;;15.70;69.80;;;;;;5043456;28;20036;-69
2022/07/10 08:33:14;;;;;;;6.68;1.65;;;15.70;72.10;;;;;;5037284;28;20414;-70
2022/07/10 08:35:40;;;;;;;5.13;1.10;;;15.80;72.80;;;;;;5069083;28;20052;-69
2022/07/10 08:38:08;;;;;;;5.95;1.00;;;15.80;69.70;;;;;;5064236;28;20035;-69
2022/07/10 08:40:36;;;;;;;4.63;1.30;;;15.60;70.10;;;;;;5071993;28;20024;-69
2022/07/10 08:43:02;;;;;;;1.85;0.90;;;15.70;72.90;;;;;;5072081;28;20049;-69
2022/07/10 08:45:33;;;;;;;1.00;1.00;;;15.80;71.50;;;;;;5064194;28;20036;-69
2022/07/10 08:48:03;;;;;;;1.90;1.00;;;15.70;70.20;;;;;;5053764;28;20033;-69
2022/07/10 08:50:31;;;;;;;2.60;0.85;;;15.50;69.70;;;;;;5056624;28;20031;-69
2022/07/10 08:53:13;;;;;;;4.63;0.90;;;15.70;69.60;;;;;;5051629;28;20163;-69
2022/07/10 08:55:39;;;;;;;3.20;1.00;;;15.90;69.80;;;;;;5053114;28;20028;-69
2022/07/10 08:58:07;;;;;;;4.40;1.20;;;15.90;69.30;;;;;;5053693;28;20041;-69
2022/07/10 09:00:33;;;;;;;3.63;1.42;;;16.20;68.90;;;;;;5051483;28;20521;-71
2022/07/10 09:02:59;;;;;;;1.65;0.85;;;16.50;68.40;;;;;;5053192;28;20067;-71
2022/07/10 09:05:26;;;;;;;2.33;0.88;;;16.70;65.70;;;;;;5049027;28;20052;-69
2022/07/10 09:07:55;;;;;;;2.13;0.88;;;16.70;63.80;;;;;;5048862;28;20036;-69
2022/07/10 09:10:25;;;;;;;8.65;1.00;;;16.60;62.50;;;;;;5046939;28;20082;-68
2022/07/10 09:13:03;;;;;;;2.47;0.90;;;16.70;63.40;;;;;;5048547;28;20052;-69
2022/07/10 09:15:32;;;;;;;3.03;0.85;;;16.60;63.10;;;;;;5071488;28;20028;-76
2022/07/10 09:18:06;;;;;;;3.63;1.30;;;16.70;63.90;;;;;;5042473;28;20091;-76
2022/07/10 09:20:40;;;;;;;3.55;1.27;;;16.40;65.20;;;;;;5039696;28;20113;-69
2022/07/10 09:23:21;;;;;;;2.72;1.48;;;15.90;67.00;;;;;;5044119;28;20125;-77
2022/07/10 09:25:51;;;;;;;2.88;0.80;;;15.70;69.20;;;;;;5044461;28;20570;-76
2022/07/10 09:28:21;;;;;;;2.47;0.80;;;15.60;70.90;;;;;;5042333;28;20126;-69
2022/07/10 09:30:48;;;;;;;3.97;1.30;;;15.50;69.90;;;;;;5042739;28;20022;-70
2022/07/10 09:33:14;;;;;;;4.10;1.00;;;15.40;70.10;;;;;;5041224;28;20025;-69
2022/07/10 09:36:14;;;;;;;4.07;1.58;;;15.20;69.50;;;;;;5040191;28;20032;-69
2022/07/10 09:38:42;;;;;;;4.22;0.95;;;15.10;70.30;;;;;;5040347;28;20041;-70
2022/07/10 09:41:21;;;;;;;3.55;0.93;;;15.10;71.10;;;;;;5041818;28;20021;-69
2022/07/10 09:44:11;;;;;;;3.95;1.10;;;15.30;72.40;;;;;;5046561;28;20029;-69
2022/07/10 09:46:41;;;;;;;2.58;0.88;;;15.30;71.70;;;;;;5044779;28;20026;-70
2022/07/10 09:49:11;;;;;;;4.43;0.88;;;15.40;69.40;;;;;;5041568;28;20022;-76
2022/07/10 09:51:41;;;;;;;3.20;1.00;;;15.40;68.60;;;;;;5046760;28;20116;-70
2022/07/10 09:54:09;;;;;;;2.42;1.33;;;15.60;67.90;;;;;;5039314;28;20033;-69
2022/07/10 09:56:51;;;;;;;5.05;1.00;;;15.80;69.50;;;;;;5032217;28;20018;-70
2022/07/10 09:59:20;;;;;;;3.33;1.13;;;16.10;66.90;;;;;;5047172;28;20017;-70
2022/07/10 10:01:48;;;;;;;2.83;2.03;;;16.50;66.20;;;;;;5051930;28;20021;-69
2022/07/10 10:04:16;;;;;;;2.90;0.82;;;16.80;63.70;;;;;;5052292;28;20024;-69
2022/07/10 10:06:42;;;;;;;4.88;0.98;;;16.70;63.60;;;;;;5050916;28;20022;-70
2022/07/10 10:09:15;;;;;;;4.75;0.75;;;16.80;63.30;;;;;;5054753;28;20036;-71
2022/07/10 10:11:44;;;;;;;3.45;1.20;;;16.90;65.70;;;;;;5055217;28;20009;-69
2022/07/10 10:14:11;;;;;;;4.32;0.90;;;16.70;65.40;;;;;;5054188;28;20493;-76
2022/07/10 10:16:39;;;;;;;3.78;0.80;;;16.10;65.30;;;;;;5055612;28;20052;-75
2022/07/10 10:21:56;;;;;;;1.15;0.60;;;14.40;63.70;;;;;;5055551;28;20039;-76
2022/07/10 10:24:23;;;;;;;2.70;1.08;;;14.30;64.30;;;;;;5055475;28;20028;-76
2022/07/10 10:26:49;;;;;;;0.90;0.60;;;14.20;64.90;;;;;;5055438;28;20502;-76
2022/07/10 10:29:15;;;;;;;1.38;0.73;;;14.10;64.70;;;;;;5055354;28;20025;-69
2022/07/10 10:31:42;;;;;;;3.35;0.88;;;14.20;66.60;;;;;;5055227;28;20049;-75
2022/07/10 10:34:08;;;;;;;2.17;0.70;;;14.20;67.30;;;;;;5055210;28;20485;-76
2022/07/10 10:36:36;;;;;;;1.73;0.80;;;14.20;68.00;;;;;;5055236;28;20021;-77
2022/07/10 10:39:14;;;;;;;1.33;0.80;;;14.10;68.40;;;;;;5055173;28;20032;-76
2022/07/10 10:41:42;;;;;;;1.35;0.70;;;14.10;69.40;;;;;;5039773;28;20049;-77
2022/07/10 10:44:08;;;;;;;0.93;0.80;;;14.20;69.20;;;;;;5035235;28;20025;-76
2022/07/10 10:46:56;;;;;;;4.53;1.00;;;14.20;70.00;;;;;;5033796;28;20391;-76
2022/07/10 10:49:26;;;;;;;4.32;1.10;;;14.40;71.50;;;;;;5044256;28;20041;-76
2022/07/10 10:52:09;;;;;;;2.65;0.70;;;14.50;70.40;;;;;;5054201;28;20025;-75
2022/07/10 10:54:53;;;;;;;;;;;14.70;68.50;;;;;;5055025;28;20116;-75
2022/07/10 10:57:19;;;;;;;1.30;0.60;;;14.80;67.10;;;;;;5053624;28;20281;-75
2022/07/10 10:59:50;;;;;;;1.95;0.68;;;14.90;66.10;;;;;;5054773;28;20017;-70
2022/07/10 11:02:33;;;;;;;3.22;0.65;;;15.00;66.10;;;;;;5054685;28;20021;-70
2022/07/10 11:05:11;;;;;;;;;;;15.10;65.00;;;;;;5055178;28;20100;-75
2022/07/10 11:07:58;;;;;;;46.45;31.83;;;15.30;64.00;;;;;;5053494;28;19905;-70
2022/07/10 11:10:35;;;;;;;57.83;45.70;;;16.00;62.40;;;;;;5034674;28;20475;-75
2022/07/10 11:13:13;;;;;;;14.65;13.02;;;16.30;60.00;;;;;;5034487;28;20041;-70
2022/07/10 11:15:44;;;;;;;2.42;0.90;;;16.40;59.20;;;;;;5033414;28;20057;-76
2022/07/10 11:18:18;;;;;;;3.53;0.88;;;16.50;59.50;;;;;;5033236;28;20026;-70
2022/07/10 11:20:46;;;;;;;4.18;1.60;;;16.40;59.60;;;;;;5032959;28;20552;-69
2022/07/10 11:23:33;;;;;;;2.83;0.95;;;16.40;60.60;;;;;;5033141;28;20022;-70
2022/07/10 11:26:13;;;;;;;7.38;4.65;;;16.50;61.20;;;;;;5034453;28;20026;-70
2022/07/10 11:29:07;;;;;;;3.22;2.35;;;16.50;61.30;;;;;;5034268;28;20387;-70
2022/07/10 11:31:46;;;;;;;24.58;18.52;;;16.50;62.20;;;;;;5034103;28;20095;-70
2022/07/10 11:34:12;;;;;;;5.18;1.58;;;16.40;60.90;;;;;;5034106;28;20025;-70
2022/07/10 11:36:39;;;;;;;4.78;2.97;;;16.40;60.60;;;;;;5032869;28;20036;-71
2022/07/10 11:39:06;;;;;;;1.00;0.90;;;16.30;59.60;;;;;;5034169;28;20029;-75
2022/07/10 11:41:33;;;;;;;6.18;1.95;;;16.30;59.10;;;;;;5034137;28;20025;-70
2022/07/10 11:44:03;;;;;;;5.75;1.20;;;16.50;59.80;;;;;;5033930;28;20450;-70
2022/07/10 11:46:31;;;;;;;2.35;1.00;;;16.40;58.70;;;;;;5032727;28;20387;-70
2022/07/10 11:48:58;;;;;;;3.97;0.95;;;16.40;57.90;;;;;;5032558;28;20022;-70
2022/07/10 11:51:29;;;;;;;6.20;2.67;;;16.40;59.20;;;;;;5033826;28;20017;-75
2022/07/10 11:54:05;;;;;;;4.20;2.22;;;16.40;60.60;;;;;;5033688;28;20063;-71
2022/07/10 11:56:38;;;;;;;19.73;17.67;;;16.40;62.50;;;;;;5033852;28;20097;-75
2022/07/10 11:59:12;;;;;;;5.85;5.03;;;16.60;63.40;;;;;;5036239;28;20033;-70
2022/07/10 12:01:42;;;;;;;28.42;23.00;;;16.50;63.60;;;;;;5072376;28;20107;-70
2022/07/10 12:04:09;;;;;;;3.55;1.38;;;16.90;64.40;;;;;;5073459;28;20024;-70
2022/07/10 12:06:38;;;;;;;2.30;1.23;;;16.60;65.00;;;;;;5072316;28;20054;-75
2022/07/10 12:09:10;;;;;;;29.70;14.38;;;16.70;66.50;;;;;;5052753;28;20021;-76
2022/07/10 12:11:36;;;;;;;3.08;1.10;;;16.50;65.20;;;;;;5052780;28;20455;-76
2022/07/10 12:14:16;;;;;;;3.30;1.65;;;16.50;64.80;;;;;;5051389;28;20059;-70
2022/07/10 12:16:44;;;;;;;0.60;0.60;;;16.70;65.50;;;;;;5052547;28;20383;-71
2022/07/10 12:19:12;;;;;;;2.53;0.70;;;16.60;61.10;;;;;;5052041;28;20490;-71
2022/07/10 12:21:40;;;;;;;1.25;0.70;;;16.70;61.30;;;;;;5052048;28;20070;-76
2022/07/10 12:24:07;;;;;;;1.92;0.77;;;16.40;59.20;;;;;;5050088;28;20045;-76
2022/07/10 12:26:41;;;;;;;1.60;0.73;;;16.60;58.80;;;;;;5052443;28;20032;-76
2022/07/10 12:29:19;;;;;;;3.88;0.93;;;16.70;60.70;;;;;;5051242;28;20017;-76
2022/07/10 12:31:46;;;;;;;1.05;0.60;;;16.80;58.60;;;;;;5051843;28;20045;-76
2022/07/10 12:34:13;;;;;;;2.47;0.45;;;16.50;58.00;;;;;;5051613;28;20397;-76
2022/07/10 12:36:50;;;;;;;2.78;0.88;;;16.60;58.10;;;;;;5053056;28;20051;-70
2022/07/10 12:39:21;;;;;;;0.57;0.50;;;16.40;57.00;;;;;;5053136;28;20013;-70
2022/07/10 12:41:58;;;;;;;3.65;0.60;;;16.70;57.40;;;;;;5053063;28;20025;-76
2022/07/10 12:44:35;;;;;;;4.00;1.13;;;16.80;57.00;;;;;;5052857;28;20095;-70
2022/07/10 12:47:08;;;;;;;1.63;0.80;;;16.70;56.40;;;;;;5053042;28;20037;-76
2022/07/10 12:49:57;;;;;;;2.28;0.50;;;16.70;57.50;;;;;;5053031;28;20032;-71
2022/07/10 12:52:31;;;;;;;0.60;0.30;;;16.70;56.50;;;;;;5049602;28;20017;-76
2022/07/10 12:55:25;;;;;;;1.40;0.40;;;16.70;55.80;;;;;;5052033;28;20116;-76
2022/07/10 12:57:53;;;;;;;0.40;0.40;;;16.80;55.70;;;;;;5050524;28;20021;-76